sensor_id;sensor_type;location;lat;lon;timestamp;P1;durP1;ratioP1;P2;durP2;ratioP2
26337;SDS011;14050;50.950;4.460;2023-01-20T00:01:44;52.25;;;28.80;;
26337;SDS011;14050;50.950;4.460;2023-01-20T00:06:46;55.78;;;29.85;;
26337;SDS011;14050;50.950;4.460;2023-01-20T00:11:47;54.42;;;29.35;;
26337;SDS011;14050;50.950;4.460;2023-01-20T00:16:47;56.67;;;31.00;;
26337;SDS011;14050;50.950;4.460;2023-01-20T00:21:48;63.58;;;32.42;;
26337;SDS011;14050;50.950;4.460;2023-01-20T00:26:48;55.27;;;30.40;;
26337;SDS011;14050;50.950;4.460;2023-01-20T00:31:48;62.22;;;31.95;;
26337;SDS011;14050;50.950;4.460;2023-01-20T00:36:49;60.22;;;29.50;;
26337;SDS011;14050;50.950;4.460;2023-01-20T00:41:50;64.60;;;33.38;;
26337;SDS011;14050;50.950;4.460;2023-01-20T00:46:50;64.68;;;32.75;;
26337;SDS011;14050;50.950;4.460;2023-01-20T00:51:50;69.88;;;35.83;;
26337;SDS011;14050;50.950;4.460;2023-01-20T00:56:51;66.78;;;37.25;;
26337;SDS011;14050;50.950;4.460;2023-01-20T01:01:51;73.67;;;36.87;;
26337;SDS011;14050;50.950;4.460;2023-01-20T01:06:51;77.97;;;36.45;;
26337;SDS011;14050;50.950;4.460;2023-01-20T01:11:52;78.13;;;38.92;;
26337;SDS011;14050;50.950;4.460;2023-01-20T01:16:52;76.43;;;38.70;;
26337;SDS011;14050;50.950;4.460;2023-01-20T01:21:52;70.73;;;37.10;;
26337;SDS011;14050;50.950;4.460;2023-01-20T01:26:53;71.60;;;34.92;;
26337;SDS011;14050;50.950;4.460;2023-01-20T01:31:53;77.73;;;37.53;;
26337;SDS011;14050;50.950;4.460;2023-01-20T01:36:53;81.10;;;39.42;;
26337;SDS011;14050;50.950;4.460;2023-01-20T01:41:54;69.47;;;35.05;;
26337;SDS011;14050;50.950;4.460;2023-01-20T01:46:54;70.18;;;35.33;;
26337;SDS011;14050;50.950;4.460;2023-01-20T01:56:55;69.83;;;34.13;;
26337;SDS011;14050;50.950;4.460;2023-01-20T02:01:55;58.37;;;33.13;;
26337;SDS011;14050;50.950;4.460;2023-01-20T02:07:00;75.90;;;35.43;;
26337;SDS011;14050;50.950;4.460;2023-01-20T02:12:03;69.50;;;35.08;;
26337;SDS011;14050;50.950;4.460;2023-01-20T02:17:20;66.80;;;33.70;;
26337;SDS011;14050;50.950;4.460;2023-01-20T02:22:31;73.45;;;35.03;;
26337;SDS011;14050;50.950;4.460;2023-01-20T02:43:22;73.72;;;36.53;;
26337;SDS011;14050;50.950;4.460;2023-01-20T02:48:27;74.78;;;35.20;;
26337;SDS011;14050;50.950;4.460;2023-01-20T02:53:31;72.68;;;35.72;;
26337;SDS011;14050;50.950;4.460;2023-01-20T02:58:41;69.80;;;33.30;;
26337;SDS011;14050;50.950;4.460;2023-01-20T03:03:43;74.97;;;35.35;;
26337;SDS011;14050;50.950;4.460;2023-01-20T03:08:47;67.15;;;33.90;;
26337;SDS011;14050;50.950;4.460;2023-01-20T03:13:51;72.10;;;33.92;;
26337;SDS011;14050;50.950;4.460;2023-01-20T03:18:53;68.38;;;34.30;;
26337;SDS011;14050;50.950;4.460;2023-01-20T03:23:56;67.07;;;34.72;;
26337;SDS011;14050;50.950;4.460;2023-01-20T03:29:01;64.18;;;34.38;;
26337;SDS011;14050;50.950;4.460;2023-01-20T03:34:05;69.47;;;35.28;;
26337;SDS011;14050;50.950;4.460;2023-01-20T03:39:12;69.85;;;34.70;;
26337;SDS011;14050;50.950;4.460;2023-01-20T03:44:18;70.97;;;35.40;;
26337;SDS011;14050;50.950;4.460;2023-01-20T03:49:26;70.45;;;35.10;;
26337;SDS011;14050;50.950;4.460;2023-01-20T03:54:41;65.40;;;34.67;;
26337;SDS011;14050;50.950;4.460;2023-01-20T03:59:43;69.05;;;34.90;;
26337;SDS011;14050;50.950;4.460;2023-01-20T04:04:46;66.82;;;36.00;;
26337;SDS011;14050;50.950;4.460;2023-01-20T04:09:49;62.85;;;33.17;;
26337;SDS011;14050;50.950;4.460;2023-01-20T04:14:50;69.40;;;33.58;;
26337;SDS011;14050;50.950;4.460;2023-01-20T04:19:51;64.53;;;34.10;;
26337;SDS011;14050;50.950;4.460;2023-01-20T04:25:02;61.40;;;34.13;;
26337;SDS011;14050;50.950;4.460;2023-01-20T04:30:05;68.75;;;36.30;;
26337;SDS011;14050;50.950;4.460;2023-01-20T04:35:06;61.05;;;32.50;;
26337;SDS011;14050;50.950;4.460;2023-01-20T04:40:06;60.55;;;33.28;;
26337;SDS011;14050;50.950;4.460;2023-01-20T04:45:08;60.78;;;31.92;;
26337;SDS011;14050;50.950;4.460;2023-01-20T04:50:08;61.90;;;33.22;;
26337;SDS011;14050;50.950;4.460;2023-01-20T04:55:09;59.63;;;30.92;;
26337;SDS011;14050;50.950;4.460;2023-01-20T05:00:10;61.97;;;32.42;;
26337;SDS011;14050;50.950;4.460;2023-01-20T05:05:11;60.17;;;33.70;;
26337;SDS011;14050;50.950;4.460;2023-01-20T05:10:12;63.10;;;32.90;;
26337;SDS011;14050;50.950;4.460;2023-01-20T05:15:12;62.23;;;31.97;;
26337;SDS011;14050;50.950;4.460;2023-01-20T05:20:12;62.50;;;32.00;;
26337;SDS011;14050;50.950;4.460;2023-01-20T05:25:13;58.42;;;32.67;;
26337;SDS011;14050;50.950;4.460;2023-01-20T05:30:14;57.60;;;31.50;;
26337;SDS011;14050;50.950;4.460;2023-01-20T05:35:14;54.30;;;31.08;;
26337;SDS011;14050;50.950;4.460;2023-01-20T05:40:15;62.42;;;32.55;;
26337;SDS011;14050;50.950;4.460;2023-01-20T05:45:15;60.67;;;33.33;;
26337;SDS011;14050;50.950;4.460;2023-01-20T05:50:15;69.75;;;35.13;;
26337;SDS011;14050;50.950;4.460;2023-01-20T05:55:17;67.80;;;34.83;;
26337;SDS011;14050;50.950;4.460;2023-01-20T06:00:17;66.38;;;35.95;;
26337;SDS011;14050;50.950;4.460;2023-01-20T06:05:18;70.25;;;34.75;;
26337;SDS011;14050;50.950;4.460;2023-01-20T06:10:18;65.50;;;34.28;;
26337;SDS011;14050;50.950;4.460;2023-01-20T06:15:20;75.13;;;39.38;;
26337;SDS011;14050;50.950;4.460;2023-01-20T06:20:23;81.65;;;43.47;;
26337;SDS011;14050;50.950;4.460;2023-01-20T06:25:23;75.95;;;40.13;;
26337;SDS011;14050;50.950;4.460;2023-01-20T06:30:24;67.63;;;37.23;;
26337;SDS011;14050;50.950;4.460;2023-01-20T06:35:24;55.80;;;30.47;;
26337;SDS011;14050;50.950;4.460;2023-01-20T06:40:25;58.80;;;31.50;;
26337;SDS011;14050;50.950;4.460;2023-01-20T06:45:25;56.40;;;32.00;;
26337;SDS011;14050;50.950;4.460;2023-01-20T06:50:26;55.30;;;32.10;;
26337;SDS011;14050;50.950;4.460;2023-01-20T06:55:26;57.42;;;32.33;;
26337;SDS011;14050;50.950;4.460;2023-01-20T07:00:32;57.00;;;31.40;;
26337;SDS011;14050;50.950;4.460;2023-01-20T07:05:32;59.75;;;31.73;;
26337;SDS011;14050;50.950;4.460;2023-01-20T07:10:32;62.53;;;33.97;;
26337;SDS011;14050;50.950;4.460;2023-01-20T07:15:33;60.08;;;33.45;;
26337;SDS011;14050;50.950;4.460;2023-01-20T07:20:33;65.33;;;34.47;;
26337;SDS011;14050;50.950;4.460;2023-01-20T07:25:34;66.27;;;33.87;;
26337;SDS011;14050;50.950;4.460;2023-01-20T07:30:37;64.93;;;34.83;;
26337;SDS011;14050;50.950;4.460;2023-01-20T07:35:37;64.20;;;33.60;;
26337;SDS011;14050;50.950;4.460;2023-01-20T07:40:37;56.87;;;31.73;;
26337;SDS011;14050;50.950;4.460;2023-01-20T07:45:38;60.60;;;32.73;;
26337;SDS011;14050;50.950;4.460;2023-01-20T07:50:38;57.95;;;31.90;;
26337;SDS011;14050;50.950;4.460;2023-01-20T07:55:38;58.20;;;32.73;;
26337;SDS011;14050;50.950;4.460;2023-01-20T08:00:39;54.63;;;30.47;;
26337;SDS011;14050;50.950;4.460;2023-01-20T08:05:40;56.53;;;30.50;;
26337;SDS011;14050;50.950;4.460;2023-01-20T08:10:40;64.03;;;33.07;;
26337;SDS011;14050;50.950;4.460;2023-01-20T08:15:40;52.17;;;31.25;;
26337;SDS011;14050;50.950;4.460;2023-01-20T08:20:41;55.13;;;29.88;;
26337;SDS011;14050;50.950;4.460;2023-01-20T08:25:41;49.30;;;29.65;;
26337;SDS011;14050;50.950;4.460;2023-01-20T08:30:41;53.38;;;30.83;;
26337;SDS011;14050;50.950;4.460;2023-01-20T08:35:42;58.07;;;29.27;;
26337;SDS011;14050;50.950;4.460;2023-01-20T08:40:42;52.77;;;27.07;;
26337;SDS011;14050;50.950;4.460;2023-01-20T08:45:43;54.13;;;28.13;;
26337;SDS011;14050;50.950;4.460;2023-01-20T08:50:43;46.88;;;26.35;;
26337;SDS011;14050;50.950;4.460;2023-01-20T08:55:44;52.78;;;28.02;;
26337;SDS011;14050;50.950;4.460;2023-01-20T09:00:52;49.67;;;26.73;;
26337;SDS011;14050;50.950;4.460;2023-01-20T09:05:53;44.33;;;24.98;;
26337;SDS011;14050;50.950;4.460;2023-01-20T09:10:54;45.42;;;24.20;;
26337;SDS011;14050;50.950;4.460;2023-01-20T09:16:00;47.00;;;26.02;;
26337;SDS011;14050;50.950;4.460;2023-01-20T09:21:00;58.90;;;26.10;;
26337;SDS011;14050;50.950;4.460;2023-01-20T09:26:02;43.92;;;24.15;;
26337;SDS011;14050;50.950;4.460;2023-01-20T09:31:05;43.65;;;23.08;;
26337;SDS011;14050;50.950;4.460;2023-01-20T09:36:06;40.42;;;22.58;;
26337;SDS011;14050;50.950;4.460;2023-01-20T09:41:16;42.70;;;22.05;;
26337;SDS011;14050;50.950;4.460;2023-01-20T09:57:42;33.55;;;18.05;;
26337;SDS011;14050;50.950;4.460;2023-01-20T10:02:51;38.72;;;18.23;;
26337;SDS011;14050;50.950;4.460;2023-01-20T10:08:38;33.33;;;16.48;;
26337;SDS011;14050;50.950;4.460;2023-01-20T10:13:18;39.53;;;17.65;;
26337;SDS011;14050;50.950;4.460;2023-01-20T10:23:28;34.58;;;16.73;;
26337;SDS011;14050;50.950;4.460;2023-01-20T10:28:29;31.67;;;17.05;;
26337;SDS011;14050;50.950;4.460;2023-01-20T10:33:36;30.23;;;14.27;;
26337;SDS011;14050;50.950;4.460;2023-01-20T10:43:47;34.67;;;15.38;;
26337;SDS011;14050;50.950;4.460;2023-01-20T10:58:51;30.77;;;13.70;;
26337;SDS011;14050;50.950;4.460;2023-01-20T11:03:51;32.53;;;13.20;;
26337;SDS011;14050;50.950;4.460;2023-01-20T11:08:54;35.15;;;12.48;;
26337;SDS011;14050;50.950;4.460;2023-01-20T11:13:55;28.13;;;12.52;;
26337;SDS011;14050;50.950;4.460;2023-01-20T11:23:57;32.67;;;11.18;;
26337;SDS011;14050;50.950;4.460;2023-01-20T11:28:59;25.83;;;9.63;;
26337;SDS011;14050;50.950;4.460;2023-01-20T11:34:01;22.30;;;9.43;;
26337;SDS011;14050;50.950;4.460;2023-01-20T11:39:02;25.17;;;9.38;;
26337;SDS011;14050;50.950;4.460;2023-01-20T11:44:06;22.05;;;9.35;;
26337;SDS011;14050;50.950;4.460;2023-01-20T11:49:24;24.13;;;9.82;;
26337;SDS011;14050;50.950;4.460;2023-01-20T11:59:28;23.10;;;9.17;;
26337;SDS011;14050;50.950;4.460;2023-01-20T12:04:35;25.83;;;9.48;;
26337;SDS011;14050;50.950;4.460;2023-01-20T12:09:39;32.72;;;9.70;;
26337;SDS011;14050;50.950;4.460;2023-01-20T12:14:48;28.27;;;9.25;;
26337;SDS011;14050;50.950;4.460;2023-01-20T12:20:08;21.40;;;8.95;;
26337;SDS011;14050;50.950;4.460;2023-01-20T12:30:26;19.48;;;8.20;;
26337;SDS011;14050;50.950;4.460;2023-01-20T12:35:30;11.52;;;6.70;;
26337;SDS011;14050;50.950;4.460;2023-01-20T12:40:41;11.85;;;7.82;;
26337;SDS011;14050;50.950;4.460;2023-01-20T13:21:32;23.97;;;14.13;;
26337;SDS011;14050;50.950;4.460;2023-01-20T13:26:33;16.10;;;9.82;;
26337;SDS011;14050;50.950;4.460;2023-01-20T13:36:36;35.53;;;10.82;;
26337;SDS011;14050;50.950;4.460;2023-01-20T13:41:46;25.03;;;8.23;;
26337;SDS011;14050;50.950;4.460;2023-01-20T13:46:47;21.95;;;7.03;;
26337;SDS011;14050;50.950;4.460;2023-01-20T13:51:48;25.88;;;6.57;;
26337;SDS011;14050;50.950;4.460;2023-01-20T13:56:48;19.75;;;6.05;;
26337;SDS011;14050;50.950;4.460;2023-01-20T14:01:48;24.48;;;5.88;;
26337;SDS011;14050;50.950;4.460;2023-01-20T14:06:50;22.03;;;6.93;;
26337;SDS011;14050;50.950;4.460;2023-01-20T14:11:51;19.45;;;6.03;;
26337;SDS011;14050;50.950;4.460;2023-01-20T14:16:52;24.30;;;7.70;;
26337;SDS011;14050;50.950;4.460;2023-01-20T14:21:55;16.80;;;5.68;;
26337;SDS011;14050;50.950;4.460;2023-01-20T14:27:13;15.25;;;3.30;;
26337;SDS011;14050;50.950;4.460;2023-01-20T14:32:26;14.55;;;3.25;;
26337;SDS011;14050;50.950;4.460;2023-01-20T14:42:29;13.45;;;4.25;;
26337;SDS011;14050;50.950;4.460;2023-01-20T14:47:30;24.33;;;4.90;;
26337;SDS011;14050;50.950;4.460;2023-01-20T14:52:32;25.00;;;5.78;;
26337;SDS011;14050;50.950;4.460;2023-01-20T14:57:33;16.80;;;5.10;;
26337;SDS011;14050;50.950;4.460;2023-01-20T15:02:34;18.45;;;4.75;;
26337;SDS011;14050;50.950;4.460;2023-01-20T15:07:35;15.68;;;4.43;;
26337;SDS011;14050;50.950;4.460;2023-01-20T15:12:38;16.27;;;3.60;;
26337;SDS011;14050;50.950;4.460;2023-01-20T15:28:22;15.52;;;3.47;;
26337;SDS011;14050;50.950;4.460;2023-01-20T15:33:24;15.20;;;3.92;;
26337;SDS011;14050;50.950;4.460;2023-01-20T15:38:26;17.80;;;5.03;;
26337;SDS011;14050;50.950;4.460;2023-01-20T15:43:27;14.60;;;6.30;;
26337;SDS011;14050;50.950;4.460;2023-01-20T15:48:28;16.52;;;4.30;;
26337;SDS011;14050;50.950;4.460;2023-01-20T15:53:28;18.73;;;5.07;;
26337;SDS011;14050;50.950;4.460;2023-01-20T15:58:30;16.67;;;4.43;;
26337;SDS011;14050;50.950;4.460;2023-01-20T16:03:31;13.95;;;3.30;;
26337;SDS011;14050;50.950;4.460;2023-01-20T16:08:35;9.95;;;2.70;;
26337;SDS011;14050;50.950;4.460;2023-01-20T16:13:36;7.03;;;2.05;;
26337;SDS011;14050;50.950;4.460;2023-01-20T16:18:36;7.00;;;4.53;;
26337;SDS011;14050;50.950;4.460;2023-01-20T16:23:37;8.52;;;3.55;;
26337;SDS011;14050;50.950;4.460;2023-01-20T16:28:37;10.37;;;6.13;;
26337;SDS011;14050;50.950;4.460;2023-01-20T16:33:37;3.73;;;3.20;;
26337;SDS011;14050;50.950;4.460;2023-01-20T16:38:38;16.47;;;11.17;;
26337;SDS011;14050;50.950;4.460;2023-01-20T16:43:39;10.13;;;7.75;;
26337;SDS011;14050;50.950;4.460;2023-01-20T16:48:42;14.52;;;10.18;;
26337;SDS011;14050;50.950;4.460;2023-01-20T16:53:42;147.00;;;62.42;;
26337;SDS011;14050;50.950;4.460;2023-01-20T16:58:45;10.13;;;6.70;;
26337;SDS011;14050;50.950;4.460;2023-01-20T17:03:45;5.40;;;3.97;;
26337;SDS011;14050;50.950;4.460;2023-01-20T17:08:50;89.20;;;33.83;;
26337;SDS011;14050;50.950;4.460;2023-01-20T17:13:50;316.83;;;115.30;;
26337;SDS011;14050;50.950;4.460;2023-01-20T17:18:51;21.17;;;10.93;;
26337;SDS011;14050;50.950;4.460;2023-01-20T17:23:53;80.43;;;30.27;;
26337;SDS011;14050;50.950;4.460;2023-01-20T17:28:54;100.10;;;59.70;;
26337;SDS011;14050;50.950;4.460;2023-01-20T17:33:55;15.30;;;9.93;;
26337;SDS011;14050;50.950;4.460;2023-01-20T17:38:56;11.33;;;6.70;;
26337;SDS011;14050;50.950;4.460;2023-01-20T17:43:56;11.05;;;6.85;;
26337;SDS011;14050;50.950;4.460;2023-01-20T17:49:00;7.57;;;5.38;;
26337;SDS011;14050;50.950;4.460;2023-01-20T17:54:07;7.70;;;4.28;;
26337;SDS011;14050;50.950;4.460;2023-01-20T17:59:07;6.40;;;3.20;;
26337;SDS011;14050;50.950;4.460;2023-01-20T18:04:07;5.15;;;3.30;;
26337;SDS011;14050;50.950;4.460;2023-01-20T18:09:10;5.43;;;3.03;;
26337;SDS011;14050;50.950;4.460;2023-01-20T18:14:10;5.25;;;3.42;;
26337;SDS011;14050;50.950;4.460;2023-01-20T18:19:11;7.70;;;3.63;;
26337;SDS011;14050;50.950;4.460;2023-01-20T18:24:13;13.32;;;6.90;;
26337;SDS011;14050;50.950;4.460;2023-01-20T18:29:14;7.57;;;5.97;;
26337;SDS011;14050;50.950;4.460;2023-01-20T18:34:15;8.07;;;5.38;;
26337;SDS011;14050;50.950;4.460;2023-01-20T18:39:17;10.57;;;8.10;;
26337;SDS011;14050;50.950;4.460;2023-01-20T18:44:17;12.73;;;9.77;;
26337;SDS011;14050;50.950;4.460;2023-01-20T18:49:18;16.58;;;14.23;;
26337;SDS011;14050;50.950;4.460;2023-01-20T18:54:18;16.20;;;12.95;;
26337;SDS011;14050;50.950;4.460;2023-01-20T18:59:25;15.05;;;12.93;;
26337;SDS011;14050;50.950;4.460;2023-01-20T19:04:26;19.13;;;15.63;;
26337;SDS011;14050;50.950;4.460;2023-01-20T19:09:27;19.33;;;15.27;;
26337;SDS011;14050;50.950;4.460;2023-01-20T19:14:27;19.02;;;15.63;;
26337;SDS011;14050;50.950;4.460;2023-01-20T19:19:28;21.55;;;16.80;;
26337;SDS011;14050;50.950;4.460;2023-01-20T19:24:29;26.65;;;20.50;;
26337;SDS011;14050;50.950;4.460;2023-01-20T19:29:29;25.40;;;18.87;;
26337;SDS011;14050;50.950;4.460;2023-01-20T19:34:29;28.73;;;22.48;;
26337;SDS011;14050;50.950;4.460;2023-01-20T19:39:29;30.13;;;21.77;;
26337;SDS011;14050;50.950;4.460;2023-01-20T19:44:30;38.28;;;27.13;;
26337;SDS011;14050;50.950;4.460;2023-01-20T19:49:30;44.35;;;28.58;;
26337;SDS011;14050;50.950;4.460;2023-01-20T19:54:30;50.70;;;33.53;;
26337;SDS011;14050;50.950;4.460;2023-01-20T19:59:32;51.88;;;31.88;;
26337;SDS011;14050;50.950;4.460;2023-01-20T20:04:32;45.33;;;30.07;;
26337;SDS011;14050;50.950;4.460;2023-01-20T20:09:33;45.87;;;31.83;;
26337;SDS011;14050;50.950;4.460;2023-01-20T20:14:34;40.75;;;27.60;;
26337;SDS011;14050;50.950;4.460;2023-01-20T20:19:34;47.77;;;31.10;;
26337;SDS011;14050;50.950;4.460;2023-01-20T20:24:35;46.87;;;28.97;;
26337;SDS011;14050;50.950;4.460;2023-01-20T20:29:36;39.93;;;28.43;;
26337;SDS011;14050;50.950;4.460;2023-01-20T20:34:36;37.13;;;25.55;;
26337;SDS011;14050;50.950;4.460;2023-01-20T20:39:37;41.22;;;28.23;;
26337;SDS011;14050;50.950;4.460;2023-01-20T20:44:37;39.40;;;26.92;;
26337;SDS011;14050;50.950;4.460;2023-01-20T20:49:37;38.83;;;28.30;;
26337;SDS011;14050;50.950;4.460;2023-01-20T20:54:37;37.70;;;28.00;;
26337;SDS011;14050;50.950;4.460;2023-01-20T20:59:38;40.70;;;28.70;;
26337;SDS011;14050;50.950;4.460;2023-01-20T21:04:38;33.63;;;26.67;;
26337;SDS011;14050;50.950;4.460;2023-01-20T21:09:38;32.65;;;25.13;;
26337;SDS011;14050;50.950;4.460;2023-01-20T21:14:39;35.97;;;27.53;;
26337;SDS011;14050;50.950;4.460;2023-01-20T21:19:39;33.83;;;23.55;;
26337;SDS011;14050;50.950;4.460;2023-01-20T21:24:39;28.83;;;23.13;;
26337;SDS011;14050;50.950;4.460;2023-01-20T21:29:39;29.27;;;24.10;;
26337;SDS011;14050;50.950;4.460;2023-01-20T21:34:40;31.42;;;24.17;;
26337;SDS011;14050;50.950;4.460;2023-01-20T21:39:40;27.23;;;21.85;;
26337;SDS011;14050;50.950;4.460;2023-01-20T21:44:40;28.30;;;23.58;;
26337;SDS011;14050;50.950;4.460;2023-01-20T21:49:42;30.65;;;24.25;;
26337;SDS011;14050;50.950;4.460;2023-01-20T21:55:01;30.27;;;24.10;;
26337;SDS011;14050;50.950;4.460;2023-01-20T22:00:02;36.88;;;23.65;;
26337;SDS011;14050;50.950;4.460;2023-01-20T22:05:03;31.10;;;24.52;;
26337;SDS011;14050;50.950;4.460;2023-01-20T22:10:03;38.00;;;30.17;;
26337;SDS011;14050;50.950;4.460;2023-01-20T22:15:04;46.90;;;32.72;;
26337;SDS011;14050;50.950;4.460;2023-01-20T22:20:04;36.40;;;28.38;;
26337;SDS011;14050;50.950;4.460;2023-01-20T22:25:05;45.83;;;32.97;;
26337;SDS011;14050;50.950;4.460;2023-01-20T22:30:06;40.15;;;30.10;;
26337;SDS011;14050;50.950;4.460;2023-01-20T22:35:07;37.72;;;30.00;;
26337;SDS011;14050;50.950;4.460;2023-01-20T22:40:07;40.10;;;27.75;;
26337;SDS011;14050;50.950;4.460;2023-01-20T22:45:08;41.28;;;30.23;;
26337;SDS011;14050;50.950;4.460;2023-01-20T22:50:12;41.08;;;28.85;;
26337;SDS011;14050;50.950;4.460;2023-01-20T22:55:13;47.03;;;32.55;;
26337;SDS011;14050;50.950;4.460;2023-01-20T23:00:13;45.03;;;30.73;;
26337;SDS011;14050;50.950;4.460;2023-01-20T23:05:14;46.28;;;29.90;;
26337;SDS011;14050;50.950;4.460;2023-01-20T23:10:16;35.80;;;27.17;;
26337;SDS011;14050;50.950;4.460;2023-01-20T23:15:36;38.95;;;27.42;;
26337;SDS011;14050;50.950;4.460;2023-01-20T23:20:36;41.50;;;29.10;;
26337;SDS011;14050;50.950;4.460;2023-01-20T23:25:37;39.83;;;26.20;;
26337;SDS011;14050;50.950;4.460;2023-01-20T23:30:37;37.53;;;26.93;;
26337;SDS011;14050;50.950;4.460;2023-01-20T23:35:37;33.13;;;25.70;;
26337;SDS011;14050;50.950;4.460;2023-01-20T23:40:38;48.23;;;30.40;;
26337;SDS011;14050;50.950;4.460;2023-01-20T23:45:38;39.90;;;27.27;;
26337;SDS011;14050;50.950;4.460;2023-01-20T23:50:38;41.97;;;27.48;;
26337;SDS011;14050;50.950;4.460;2023-01-20T23:55:38;39.88;;;28.40;;
